sensor_id;sensor_type;location;lat;lon;timestamp;pressure;altitude;pressure_sealevel;temperature;humidity
75692;BME280;64307;52.508;6.090;2023-05-21T00:00:37;101976.22;;;14.77;74.17
75692;BME280;64307;52.508;6.090;2023-05-21T00:03:02;101977.03;;;14.85;73.91
75692;BME280;64307;52.508;6.090;2023-05-21T00:05:27;101968.22;;;14.83;74.75
75692;BME280;64307;52.508;6.090;2023-05-21T00:07:53;101961.78;;;14.79;74.50
75692;BME280;64307;52.508;6.090;2023-05-21T00:10:19;101965.78;;;14.78;75.10
75692;BME280;64307;52.508;6.090;2023-05-21T00:12:44;101958.97;;;14.72;75.40
75692;BME280;64307;52.508;6.090;2023-05-21T00:15:11;101949.34;;;14.59;75.78
75692;BME280;64307;52.508;6.090;2023-05-21T00:17:36;101947.34;;;14.63;75.61
75692;BME280;64307;52.508;6.090;2023-05-21T00:20:03;101964.16;;;14.70;75.74
75692;BME280;64307;52.508;6.090;2023-05-21T00:22:31;101946.13;;;14.64;75.82
75692;BME280;64307;52.508;6.090;2023-05-21T00:24:57;101946.91;;;14.57;76.30
75692;BME280;64307;52.508;6.090;2023-05-21T00:27:23;101944.53;;;14.63;76.25
75692;BME280;64307;52.508;6.090;2023-05-21T00:29:48;101945.75;;;14.69;76.42
75692;BME280;64307;52.508;6.090;2023-05-21T00:32:13;101927.28;;;14.57;76.37
75692;BME280;64307;52.508;6.090;2023-05-21T00:34:38;101932.91;;;14.57;76.41
75692;BME280;64307;52.508;6.090;2023-05-21T00:37:04;101936.09;;;14.56;76.89
75692;BME280;64307;52.508;6.090;2023-05-21T00:39:29;101946.94;;;14.64;76.78
75692;BME280;64307;52.508;6.090;2023-05-21T00:41:54;101932.91;;;14.54;77.12
75692;BME280;64307;52.508;6.090;2023-05-21T00:44:21;101933.31;;;14.56;77.27
75692;BME280;64307;52.508;6.090;2023-05-21T00:46:48;101916.09;;;14.54;77.35
75692;BME280;64307;52.508;6.090;2023-05-21T00:49:17;101932.13;;;14.57;77.56
75692;BME280;64307;52.508;6.090;2023-05-21T00:51:43;101934.50;;;14.62;77.71
75692;BME280;64307;52.508;6.090;2023-05-21T00:54:09;101932.13;;;14.64;77.72
75692;BME280;64307;52.508;6.090;2023-05-21T00:56:36;101916.88;;;14.61;77.78
75692;BME280;64307;52.508;6.090;2023-05-21T00:59:02;101924.13;;;14.59;77.79
75692;BME280;64307;52.508;6.090;2023-05-21T01:01:30;101912.88;;;14.52;78.33
75692;BME280;64307;52.508;6.090;2023-05-21T01:04:00;101926.50;;;14.46;78.51
75692;BME280;64307;52.508;6.090;2023-05-21T01:06:26;101921.28;;;14.52;78.51
75692;BME280;64307;52.508;6.090;2023-05-21T01:08:51;101930.09;;;14.57;78.41
75692;BME280;64307;52.508;6.090;2023-05-21T01:11:17;101913.25;;;14.43;78.88
75692;BME280;64307;52.508;6.090;2023-05-21T01:13:43;101910.06;;;14.38;78.78
75692;BME280;64307;52.508;6.090;2023-05-21T01:16:10;101922.44;;;14.37;79.32
75692;BME280;64307;52.508;6.090;2023-05-21T01:18:37;101918.47;;;14.41;79.15
75692;BME280;64307;52.508;6.090;2023-05-21T01:21:03;101913.66;;;14.42;79.27
75692;BME280;64307;52.508;6.090;2023-05-21T01:23:29;101913.66;;;14.45;79.44
75692;BME280;64307;52.508;6.090;2023-05-21T01:25:54;101916.06;;;14.43;79.74
75692;BME280;64307;52.508;6.090;2023-05-21T01:28:21;101908.06;;;14.38;79.71
75692;BME280;64307;52.508;6.090;2023-05-21T01:30:47;101914.03;;;14.37;80.12
75692;BME280;64307;52.508;6.090;2023-05-21T01:33:17;101910.44;;;14.33;80.22
75692;BME280;64307;52.508;6.090;2023-05-21T01:35:50;101904.78;;;14.26;80.46
75692;BME280;64307;52.508;6.090;2023-05-21T01:38:21;101900.44;;;14.28;80.29
75692;BME280;64307;52.508;6.090;2023-05-21T01:40:54;101894.75;;;14.18;80.69
75692;BME280;64307;52.508;6.090;2023-05-21T01:43:24;101882.34;;;14.19;80.51
75692;BME280;64307;52.508;6.090;2023-05-21T01:45:54;101899.22;;;14.33;80.78
75692;BME280;64307;52.508;6.090;2023-05-21T01:48:21;101895.16;;;14.27;80.67
75692;BME280;64307;52.508;6.090;2023-05-21T01:50:48;101895.56;;;14.22;81.03
75692;BME280;64307;52.508;6.090;2023-05-21T01:53:14;101904.81;;;14.29;81.12
75692;BME280;64307;52.508;6.090;2023-05-21T01:55:39;101891.16;;;14.21;81.26
75692;BME280;64307;52.508;6.090;2023-05-21T01:58:06;101879.94;;;14.14;81.37
75692;BME280;64307;52.508;6.090;2023-05-21T02:00:31;101897.53;;;14.14;81.49
75692;BME280;64307;52.508;6.090;2023-05-21T02:02:59;101880.72;;;14.07;81.71
75692;BME280;64307;52.508;6.090;2023-05-21T02:05:24;101879.50;;;14.08;81.92
75692;BME280;64307;52.508;6.090;2023-05-21T02:07:50;101896.34;;;14.15;82.10
75692;BME280;64307;52.508;6.090;2023-05-21T02:10:16;101884.72;;;14.10;82.32
75692;BME280;64307;52.508;6.090;2023-05-21T02:12:42;101891.53;;;14.12;82.28
75692;BME280;64307;52.508;6.090;2023-05-21T02:15:07;101879.09;;;14.06;82.21
75692;BME280;64307;52.508;6.090;2023-05-21T02:17:33;101882.34;;;14.19;82.15
75692;BME280;64307;52.508;6.090;2023-05-21T02:19:59;101869.50;;;14.11;82.42
75692;BME280;64307;52.508;6.090;2023-05-21T02:22:38;101885.16;;;14.22;82.33
75692;BME280;64307;52.508;6.090;2023-05-21T02:25:07;101887.56;;;14.20;82.42
75692;BME280;64307;52.508;6.090;2023-05-21T02:27:34;101877.94;;;14.18;82.42
75692;BME280;64307;52.508;6.090;2023-05-21T02:30:01;101880.75;;;14.18;82.51
75692;BME280;64307;52.508;6.090;2023-05-21T02:32:27;101884.75;;;14.17;82.19
75692;BME280;64307;52.508;6.090;2023-05-21T02:34:52;101884.38;;;14.18;82.14
75692;BME280;64307;52.508;6.090;2023-05-21T02:37:18;101884.72;;;14.10;82.61
75692;BME280;64307;52.508;6.090;2023-05-21T02:39:44;101883.16;;;14.16;82.74
75692;BME280;64307;52.508;6.090;2023-05-21T02:42:09;101883.97;;;14.20;82.97
75692;BME280;64307;52.508;6.090;2023-05-21T02:44:35;101880.72;;;14.14;82.88
75692;BME280;64307;52.508;6.090;2023-05-21T02:47:00;101879.53;;;14.19;83.16
75692;BME280;64307;52.508;6.090;2023-05-21T02:49:25;101866.31;;;14.12;82.91
75692;BME280;64307;52.508;6.090;2023-05-21T02:51:51;101863.50;;;14.12;83.03
75692;BME280;64307;52.508;6.090;2023-05-21T02:54:16;101872.72;;;14.13;83.07
75692;BME280;64307;52.508;6.090;2023-05-21T02:56:41;101869.13;;;14.16;83.08
75692;BME280;64307;52.508;6.090;2023-05-21T02:59:06;101860.28;;;14.10;83.26
75692;BME280;64307;52.508;6.090;2023-05-21T03:01:32;101877.13;;;14.21;83.52
75692;BME280;64307;52.508;6.090;2023-05-21T03:03:57;101875.91;;;14.11;83.53
75692;BME280;64307;52.508;6.090;2023-05-21T03:06:22;101874.34;;;14.14;83.94
75692;BME280;64307;52.508;6.090;2023-05-21T03:08:47;101867.53;;;14.15;83.76
75692;BME280;64307;52.508;6.090;2023-05-21T03:11:13;101879.97;;;14.24;83.49
75692;BME280;64307;52.508;6.090;2023-05-21T03:13:38;101879.53;;;14.19;84.04
75692;BME280;64307;52.508;6.090;2023-05-21T03:16:05;101873.16;;;14.18;83.65
75692;BME280;64307;52.508;6.090;2023-05-21T03:18:30;101874.75;;;14.16;83.78
75692;BME280;64307;52.508;6.090;2023-05-21T03:20:56;101871.94;;;14.23;83.95
75692;BME280;64307;52.508;6.090;2023-05-21T03:23:23;101875.56;;;14.23;83.85
75692;BME280;64307;52.508;6.090;2023-05-21T03:25:48;101873.16;;;14.18;84.05
75692;BME280;64307;52.508;6.090;2023-05-21T03:28:15;101853.91;;;14.10;84.24
75692;BME280;64307;52.508;6.090;2023-05-21T03:30:41;101874.34;;;14.14;84.09
75692;BME280;64307;52.508;6.090;2023-05-21T03:33:12;101867.13;;;14.13;84.67
75692;BME280;64307;52.508;6.090;2023-05-21T03:35:38;101876.34;;;14.17;84.67
75692;BME280;64307;52.508;6.090;2023-05-21T03:38:03;101869.09;;;14.12;84.85
75692;BME280;64307;52.508;6.090;2023-05-21T03:40:30;101878.72;;;14.11;85.02
75692;BME280;64307;52.508;6.090;2023-05-21T03:42:55;101879.94;;;14.17;84.95
75692;BME280;64307;52.508;6.090;2023-05-21T03:45:20;101872.72;;;14.13;84.64
75692;BME280;64307;52.508;6.090;2023-05-21T03:47:45;101869.91;;;14.09;84.99
75692;BME280;64307;52.508;6.090;2023-05-21T03:50:14;101867.13;;;14.13;84.97
75692;BME280;64307;52.508;6.090;2023-05-21T03:52:39;101863.91;;;14.04;85.22
75692;BME280;64307;52.508;6.090;2023-05-21T03:55:05;101867.13;;;14.06;85.14
75692;BME280;64307;52.508;6.090;2023-05-21T03:57:30;101865.91;;;14.07;85.44
75692;BME280;64307;52.508;6.090;2023-05-21T03:59:56;101868.72;;;14.14;85.05
75692;BME280;64307;52.508;6.090;2023-05-21T04:02:24;101874.31;;;14.10;85.16
75692;BME280;64307;52.508;6.090;2023-05-21T04:04:50;101866.31;;;14.12;85.03
75692;BME280;64307;52.508;6.090;2023-05-21T04:07:18;101872.31;;;14.11;85.30
75692;BME280;64307;52.508;6.090;2023-05-21T04:09:43;101882.75;;;14.14;85.01
75692;BME280;64307;52.508;6.090;2023-05-21T04:12:08;101875.50;;;14.06;85.04
75692;BME280;64307;52.508;6.090;2023-05-21T04:14:35;101873.09;;;14.04;84.94
75692;BME280;64307;52.508;6.090;2023-05-21T04:17:01;101875.91;;;14.08;85.52
75692;BME280;64307;52.508;6.090;2023-05-21T04:19:28;101877.50;;;14.09;85.33
75692;BME280;64307;52.508;6.090;2023-05-21T04:21:54;101878.31;;;14.13;85.24
75692;BME280;64307;52.508;6.090;2023-05-21T04:24:20;101875.94;;;14.15;85.70
75692;BME280;64307;52.508;6.090;2023-05-21T04:26:46;101871.91;;;14.12;85.10
75692;BME280;64307;52.508;6.090;2023-05-21T04:29:13;101878.72;;;14.08;85.37
75692;BME280;64307;52.508;6.090;2023-05-21T04:31:42;101868.69;;;14.07;85.84
75692;BME280;64307;52.508;6.090;2023-05-21T04:34:07;101881.94;;;14.13;85.23
75692;BME280;64307;52.508;6.090;2023-05-21T04:36:33;101879.94;;;14.14;85.37
75692;BME280;64307;52.508;6.090;2023-05-21T04:38:58;101878.31;;;14.16;85.02
75692;BME280;64307;52.508;6.090;2023-05-21T04:41:25;101883.16;;;14.19;84.88
75692;BME280;64307;52.508;6.090;2023-05-21T04:43:50;101875.97;;;14.22;84.82
75692;BME280;64307;52.508;6.090;2023-05-21T04:46:22;101891.97;;;14.21;84.80
75692;BME280;64307;52.508;6.090;2023-05-21T04:48:53;101875.22;;;14.28;84.64
75692;BME280;64307;52.508;6.090;2023-05-21T04:51:22;101870.38;;;14.29;84.48
75692;BME280;64307;52.508;6.090;2023-05-21T04:53:49;101878.41;;;14.30;84.71
75692;BME280;64307;52.508;6.090;2023-05-21T04:56:17;101877.59;;;14.37;84.40
75692;BME280;64307;52.508;6.090;2023-05-21T04:58:43;101879.22;;;14.38;84.16
75692;BME280;64307;52.508;6.090;2023-05-21T05:01:09;101882.81;;;14.45;83.95
75692;BME280;64307;52.508;6.090;2023-05-21T05:03:34;101856.41;;;14.46;83.53
75692;BME280;64307;52.508;6.090;2023-05-21T05:06:00;101873.63;;;14.48;83.48
75692;BME280;64307;52.508;6.090;2023-05-21T05:08:28;101866.44;;;14.51;83.50
75692;BME280;64307;52.508;6.090;2023-05-21T05:10:53;101877.25;;;14.49;83.06
75692;BME280;64307;52.508;6.090;2023-05-21T05:13:18;101879.25;;;14.45;83.95
75692;BME280;64307;52.508;6.090;2023-05-21T05:15:44;101871.25;;;14.47;83.72
75692;BME280;64307;52.508;6.090;2023-05-21T05:18:10;101865.22;;;14.34;83.84
75692;BME280;64307;52.508;6.090;2023-05-21T05:20:35;101889.66;;;14.48;83.65
75692;BME280;64307;52.508;6.090;2023-05-21T05:23:01;101872.81;;;14.48;83.63
75692;BME280;64307;52.508;6.090;2023-05-21T05:25:26;101880.84;;;14.46;83.56
75692;BME280;64307;52.508;6.090;2023-05-21T05:27:51;101880.84;;;14.46;83.56
75692;BME280;64307;52.508;6.090;2023-05-21T05:30:17;101876.84;;;14.50;83.75
75692;BME280;64307;52.508;6.090;2023-05-21T05:32:42;101874.84;;;14.51;83.21
75692;BME280;64307;52.508;6.090;2023-05-21T05:35:08;101884.44;;;14.53;83.30
75692;BME280;64307;52.508;6.090;2023-05-21T05:37:34;101866.03;;;14.52;83.38
75692;BME280;64307;52.508;6.090;2023-05-21T05:40:00;101875.25;;;14.56;83.26
75692;BME280;64307;52.508;6.090;2023-05-21T05:42:25;101884.06;;;14.55;83.36
75692;BME280;64307;52.508;6.090;2023-05-21T05:44:50;101878.84;;;14.53;83.28
75692;BME280;64307;52.508;6.090;2023-05-21T05:47:16;101862.81;;;14.57;83.19
75692;BME280;64307;52.508;6.090;2023-05-21T05:49:41;101873.66;;;14.69;83.07
75692;BME280;64307;52.508;6.090;2023-05-21T05:52:06;101859.63;;;14.66;82.61
75692;BME280;64307;52.508;6.090;2023-05-21T05:54:32;101874.44;;;14.70;82.44
75692;BME280;64307;52.508;6.090;2023-05-21T05:56:57;101866.44;;;14.75;82.36
75692;BME280;64307;52.508;6.090;2023-05-21T05:59:23;101867.66;;;14.71;82.39
75692;BME280;64307;52.508;6.090;2023-05-21T06:01:48;101872.06;;;14.65;82.73
75692;BME280;64307;52.508;6.090;2023-05-21T06:04:13;101880.06;;;14.73;81.88
75692;BME280;64307;52.508;6.090;2023-05-21T06:06:38;101866.44;;;14.79;82.50
75692;BME280;64307;52.508;6.090;2023-05-21T06:09:04;101870.06;;;14.80;81.99
75692;BME280;64307;52.508;6.090;2023-05-21T06:11:29;101869.66;;;14.92;81.64
75692;BME280;64307;52.508;6.090;2023-05-21T06:13:54;101860.81;;;15.14;80.98
75692;BME280;64307;52.508;6.090;2023-05-21T06:16:20;101862.38;;;15.22;80.85
75692;BME280;64307;52.508;6.090;2023-05-21T06:18:46;101852.78;;;15.09;80.26
75692;BME280;64307;52.508;6.090;2023-05-21T06:21:11;101871.22;;;15.10;80.50
75692;BME280;64307;52.508;6.090;2023-05-21T06:23:36;101852.78;;;15.16;80.39
75692;BME280;64307;52.508;6.090;2023-05-21T06:26:02;101861.59;;;15.22;79.92
75692;BME280;64307;52.508;6.090;2023-05-21T06:28:28;101863.56;;;15.39;79.85
75692;BME280;64307;52.508;6.090;2023-05-21T06:30:53;101871.94;;;15.60;78.48
75692;BME280;64307;52.508;6.090;2023-05-21T06:33:20;101863.91;;;15.66;78.62
75692;BME280;64307;52.508;6.090;2023-05-21T06:35:45;101863.13;;;15.62;78.55
75692;BME280;64307;52.508;6.090;2023-05-21T06:38:11;101856.50;;;16.03;77.18
75692;BME280;64307;52.508;6.090;2023-05-21T06:40:36;101862.09;;;16.10;76.81
75692;BME280;64307;52.508;6.090;2023-05-21T06:43:02;101863.69;;;16.08;76.48
75692;BME280;64307;52.508;6.090;2023-05-21T06:45:29;101862.94;;;15.97;77.04
75692;BME280;64307;52.508;6.090;2023-05-21T06:47:55;101849.91;;;16.31;75.80
75692;BME280;64307;52.508;6.090;2023-05-21T06:50:20;101855.09;;;16.36;75.81
75692;BME280;64307;52.508;6.090;2023-05-21T06:52:45;101848.81;;;16.73;74.36
75692;BME280;64307;52.508;6.090;2023-05-21T06:55:11;101850.84;;;16.69;74.09
75692;BME280;64307;52.508;6.090;2023-05-21T06:57:37;101847.91;;;16.86;73.16
75692;BME280;64307;52.508;6.090;2023-05-21T07:00:03;101844.94;;;17.00;72.69
75692;BME280;64307;52.508;6.090;2023-05-21T07:02:28;101845.13;;;17.24;72.30
75692;BME280;64307;52.508;6.090;2023-05-21T07:04:54;101850.81;;;17.16;72.31
75692;BME280;64307;52.508;6.090;2023-05-21T07:07:19;101834.84;;;17.44;71.37
75692;BME280;64307;52.508;6.090;2023-05-21T07:09:44;101843.16;;;17.58;71.06
75692;BME280;64307;52.508;6.090;2023-05-21T07:12:11;101828.50;;;18.00;69.08
75692;BME280;64307;52.508;6.090;2023-05-21T07:14:36;101830.75;;;17.82;69.62
75692;BME280;64307;52.508;6.090;2023-05-21T07:17:02;101830.94;;;18.25;67.93
75692;BME280;64307;52.508;6.090;2023-05-21T07:19:27;101839.16;;;18.42;67.40
75692;BME280;64307;52.508;6.090;2023-05-21T07:21:52;101831.25;;;19.69;63.38
75692;BME280;64307;52.508;6.090;2023-05-21T07:24:18;101844.25;;;19.01;64.75
75692;BME280;64307;52.508;6.090;2023-05-21T07:26:43;101840.16;;;19.48;63.04
75692;BME280;64307;52.508;6.090;2023-05-21T07:29:08;101832.13;;;19.66;62.51
75692;BME280;64307;52.508;6.090;2023-05-21T07:31:34;101834.63;;;20.19;61.45
75692;BME280;64307;52.508;6.090;2023-05-21T07:33:59;101844.59;;;20.24;61.05
75692;BME280;64307;52.508;6.090;2023-05-21T07:36:25;101846.22;;;20.73;59.54
75692;BME280;64307;52.508;6.090;2023-05-21T07:38:51;101845.06;;;20.55;59.41
75692;BME280;64307;52.508;6.090;2023-05-21T07:41:17;101851.59;;;20.19;60.16
75692;BME280;64307;52.508;6.090;2023-05-21T07:43:42;101847.28;;;20.11;60.81
75692;BME280;64307;52.508;6.090;2023-05-21T07:46:08;101841.78;;;21.49;57.45
75692;BME280;64307;52.508;6.090;2023-05-21T07:48:33;101837.91;;;21.43;56.98
75692;BME280;64307;52.508;6.090;2023-05-21T07:51:00;101845.59;;;20.98;57.48
75692;BME280;64307;52.508;6.090;2023-05-21T07:53:25;101838.19;;;20.72;58.18
75692;BME280;64307;52.508;6.090;2023-05-21T07:55:50;101838.47;;;21.38;57.32
75692;BME280;64307;52.508;6.090;2023-05-21T07:58:16;101839.47;;;22.02;55.23
75692;BME280;64307;52.508;6.090;2023-05-21T08:00:44;101832.19;;;22.00;54.92
75692;BME280;64307;52.508;6.090;2023-05-21T08:03:12;101829.59;;;22.06;54.91
75692;BME280;64307;52.508;6.090;2023-05-21T08:05:38;101824.44;;;21.18;57.15
75692;BME280;64307;52.508;6.090;2023-05-21T08:08:04;101814.34;;;21.01;57.87
75692;BME280;64307;52.508;6.090;2023-05-21T08:10:30;101810.53;;;21.24;57.14
75692;BME280;64307;52.508;6.090;2023-05-21T08:12:55;101808.94;;;21.23;57.17
75692;BME280;64307;52.508;6.090;2023-05-21T08:15:21;101811.44;;;21.62;56.99
75692;BME280;64307;52.508;6.090;2023-05-21T08:17:47;101820.38;;;20.71;58.36
75692;BME280;64307;52.508;6.090;2023-05-21T08:20:13;101801.56;;;20.49;59.13
75692;BME280;64307;52.508;6.090;2023-05-21T08:22:39;101811.09;;;20.38;60.39
75692;BME280;64307;52.508;6.090;2023-05-21T08:25:07;101820.59;;;20.48;59.83
75692;BME280;64307;52.508;6.090;2023-05-21T08:27:32;101815.78;;;20.93;58.43
75692;BME280;64307;52.508;6.090;2023-05-21T08:29:57;101813.13;;;20.86;58.29
75692;BME280;64307;52.508;6.090;2023-05-21T08:32:23;101810.31;;;20.86;58.58
75692;BME280;64307;52.508;6.090;2023-05-21T08:34:48;101812.16;;;21.79;56.45
75692;BME280;64307;52.508;6.090;2023-05-21T08:37:13;101809.78;;;21.36;57.43
75692;BME280;64307;52.508;6.090;2023-05-21T08:39:39;101821.69;;;21.44;57.40
75692;BME280;64307;52.508;6.090;2023-05-21T08:42:13;101822.50;;;21.44;57.08
75692;BME280;64307;52.508;6.090;2023-05-21T08:44:42;101822.94;;;20.98;57.84
75692;BME280;64307;52.508;6.090;2023-05-21T08:47:13;101828.34;;;21.08;57.75
75692;BME280;64307;52.508;6.090;2023-05-21T08:49:41;101819.50;;;21.06;57.69
75692;BME280;64307;52.508;6.090;2023-05-21T08:52:09;101836.94;;;20.89;58.41
75692;BME280;64307;52.508;6.090;2023-05-21T08:54:34;101820.41;;;21.32;56.44
75692;BME280;64307;52.508;6.090;2023-05-21T08:57:02;101816.03;;;21.15;56.62
75692;BME280;64307;52.508;6.090;2023-05-21T08:59:28;101824.00;;;21.49;56.51
75692;BME280;64307;52.508;6.090;2023-05-21T09:01:53;101825.59;;;22.54;53.91
75692;BME280;64307;52.508;6.090;2023-05-21T09:04:19;101820.19;;;21.39;56.25
75692;BME280;64307;52.508;6.090;2023-05-21T09:06:45;101826.91;;;21.00;57.42
75692;BME280;64307;52.508;6.090;2023-05-21T09:09:33;101832.50;;;21.20;57.12
75692;BME280;64307;52.508;6.090;2023-05-21T09:12:02;101827.88;;;21.10;57.55
75692;BME280;64307;52.508;6.090;2023-05-21T09:14:28;101815.84;;;21.22;56.81
75692;BME280;64307;52.508;6.090;2023-05-21T09:16:53;101828.75;;;21.23;56.72
75692;BME280;64307;52.508;6.090;2023-05-21T09:19:19;101815.91;;;21.47;56.80
75692;BME280;64307;52.508;6.090;2023-05-21T09:21:45;101826.16;;;21.29;56.93
75692;BME280;64307;52.508;6.090;2023-05-21T09:24:12;101811.97;;;21.16;57.36
75692;BME280;64307;52.508;6.090;2023-05-21T09:26:42;101814.00;;;21.15;57.52
75692;BME280;64307;52.508;6.090;2023-05-21T09:29:07;101824.44;;;21.18;57.58
75692;BME280;64307;52.508;6.090;2023-05-21T09:31:32;101817.38;;;21.10;57.77
75692;BME280;64307;52.508;6.090;2023-05-21T09:33:58;101821.19;;;21.04;57.50
75692;BME280;64307;52.508;6.090;2023-05-21T09:36:24;101818.56;;;21.26;57.01
75692;BME280;64307;52.508;6.090;2023-05-21T09:38:50;101816.28;;;21.49;56.74
75692;BME280;64307;52.508;6.090;2023-05-21T09:41:17;101808.59;;;22.04;55.91
75692;BME280;64307;52.508;6.090;2023-05-21T09:43:42;101816.78;;;22.27;54.58
75692;BME280;64307;52.508;6.090;2023-05-21T09:46:08;101800.88;;;22.42;54.51
75692;BME280;64307;52.508;6.090;2023-05-21T09:48:38;101811.78;;;22.43;54.93
75692;BME280;64307;52.508;6.090;2023-05-21T09:51:18;101815.19;;;23.10;52.66
75692;BME280;64307;52.508;6.090;2023-05-21T09:53:54;101813.25;;;23.07;52.11
75692;BME280;64307;52.508;6.090;2023-05-21T09:56:24;101803.63;;;23.26;51.37
75692;BME280;64307;52.508;6.090;2023-05-21T09:58:51;101802.50;;;23.24;51.37
75692;BME280;64307;52.508;6.090;2023-05-21T10:01:19;101793.03;;;23.92;50.20
75692;BME280;64307;52.508;6.090;2023-05-21T10:03:49;101797.50;;;24.23;49.83
75692;BME280;64307;52.508;6.090;2023-05-21T10:06:16;101790.19;;;23.92;50.43
75692;BME280;64307;52.508;6.090;2023-05-21T10:08:44;101806.22;;;22.40;53.68
75692;BME280;64307;52.508;6.090;2023-05-21T10:11:12;101793.63;;;23.00;53.42
75692;BME280;64307;52.508;6.090;2023-05-21T10:13:44;101789.75;;;23.28;53.12
75692;BME280;64307;52.508;6.090;2023-05-21T10:16:13;101777.25;;;23.91;51.68
75692;BME280;64307;52.508;6.090;2023-05-21T10:18:41;101773.47;;;23.41;52.05
75692;BME280;64307;52.508;6.090;2023-05-21T10:21:06;101786.09;;;23.06;53.66
75692;BME280;64307;52.508;6.090;2023-05-21T10:23:34;101756.59;;;23.47;53.27
75692;BME280;64307;52.508;6.090;2023-05-21T10:26:00;101770.88;;;23.56;51.96
75692;BME280;64307;52.508;6.090;2023-05-21T10:28:27;101768.69;;;23.91;50.74
75692;BME280;64307;52.508;6.090;2023-05-21T10:30:54;101775.22;;;24.31;50.14
75692;BME280;64307;52.508;6.090;2023-05-21T10:33:22;101759.69;;;24.90;48.14
75692;BME280;64307;52.508;6.090;2023-05-21T10:35:50;101764.59;;;25.16;47.28
75692;BME280;64307;52.508;6.090;2023-05-21T10:38:18;101770.03;;;24.48;48.73
75692;BME280;64307;52.508;6.090;2023-05-21T10:40:44;101749.56;;;24.22;49.80
75692;BME280;64307;52.508;6.090;2023-05-21T10:45:47;101753.84;;;25.11;48.29
75692;BME280;64307;52.508;6.090;2023-05-21T11:01:52;101753.63;;;25.60;47.32
75692;BME280;64307;52.508;6.090;2023-05-21T11:04:25;101744.47;;;26.07;46.14
75692;BME280;64307;52.508;6.090;2023-05-21T11:06:50;101739.09;;;26.00;46.19
75692;BME280;64307;52.508;6.090;2023-05-21T11:09:16;101738.47;;;24.91;48.07
75692;BME280;64307;52.508;6.090;2023-05-21T11:11:43;101731.50;;;25.01;48.88
75692;BME280;64307;52.508;6.090;2023-05-21T11:14:39;101720.88;;;25.19;48.37
75692;BME280;64307;52.508;6.090;2023-05-21T11:19:45;101721.34;;;25.96;46.32
75692;BME280;64307;52.508;6.090;2023-05-21T11:24:48;101724.69;;;25.26;48.01
75692;BME280;64307;52.508;6.090;2023-05-21T11:27:30;101719.28;;;25.18;48.41
75692;BME280;64307;52.508;6.090;2023-05-21T11:29:56;101728.09;;;24.39;49.49
75692;BME280;64307;52.508;6.090;2023-05-21T11:32:21;101713.59;;;24.06;52.01
75692;BME280;64307;52.508;6.090;2023-05-21T11:34:48;101724.69;;;25.07;49.19
75692;BME280;64307;52.508;6.090;2023-05-21T11:39:49;101733.41;;;25.22;49.15
75692;BME280;64307;52.508;6.090;2023-05-21T11:42:31;101725.78;;;25.19;48.79
75692;BME280;64307;52.508;6.090;2023-05-21T11:44:57;101721.47;;;24.69;50.08
75692;BME280;64307;52.508;6.090;2023-05-21T11:47:26;101715.47;;;24.58;50.83
75692;BME280;64307;52.508;6.090;2023-05-21T11:49:52;101720.56;;;25.17;49.60
75692;BME280;64307;52.508;6.090;2023-05-21T11:52:18;101706.16;;;25.03;49.63
75692;BME280;64307;52.508;6.090;2023-05-21T11:54:44;101719.59;;;24.66;50.70
75692;BME280;64307;52.508;6.090;2023-05-21T11:57:14;101712.75;;;24.46;50.59
75692;BME280;64307;52.508;6.090;2023-05-21T11:59:45;101716.97;;;24.23;51.03
75692;BME280;64307;52.508;6.090;2023-05-21T12:02:14;101703.06;;;24.25;51.37
75692;BME280;64307;52.508;6.090;2023-05-21T12:04:40;101704.25;;;25.09;50.21
75692;BME280;64307;52.508;6.090;2023-05-21T12:07:07;101703.47;;;25.17;49.84
75692;BME280;64307;52.508;6.090;2023-05-21T12:09:47;101701.66;;;25.56;49.66
75692;BME280;64307;52.508;6.090;2023-05-21T12:12:17;101685.72;;;25.13;49.91
75692;BME280;64307;52.508;6.090;2023-05-21T12:14:44;101701.91;;;24.80;50.16
75692;BME280;64307;52.508;6.090;2023-05-21T12:17:18;101702.19;;;25.00;50.62
75692;BME280;64307;52.508;6.090;2023-05-21T12:19:45;101707.88;;;25.18;50.51
75692;BME280;64307;52.508;6.090;2023-05-21T12:22:10;101687.56;;;24.26;51.69
75692;BME280;64307;52.508;6.090;2023-05-21T12:24:37;101684.31;;;24.82;51.10
75692;BME280;64307;52.508;6.090;2023-05-21T12:27:03;101696.03;;;25.02;50.48
75692;BME280;64307;52.508;6.090;2023-05-21T12:29:35;101694.56;;;24.61;51.38
75692;BME280;64307;52.508;6.090;2023-05-21T12:32:01;101684.47;;;24.78;51.38
75692;BME280;64307;52.508;6.090;2023-05-21T12:34:56;101679.56;;;24.61;51.91
75692;BME280;64307;52.508;6.090;2023-05-21T12:37:25;101690.72;;;24.19;52.10
75692;BME280;64307;52.508;6.090;2023-05-21T12:39:52;101683.56;;;24.05;53.35
75692;BME280;64307;52.508;6.090;2023-05-21T12:42:25;101672.41;;;24.38;52.41
75692;BME280;64307;52.508;6.090;2023-05-21T12:45:00;101676.81;;;24.30;52.58
75692;BME280;64307;52.508;6.090;2023-05-21T12:47:27;101686.50;;;24.02;53.21
75692;BME280;64307;52.508;6.090;2023-05-21T12:50:01;101678.75;;;24.69;52.26
75692;BME280;64307;52.508;6.090;2023-05-21T12:52:28;101669.84;;;25.31;51.09
75692;BME280;64307;52.508;6.090;2023-05-21T12:54:56;101674.16;;;24.72;51.54
75692;BME280;64307;52.508;6.090;2023-05-21T12:57:44;101671.47;;;25.13;51.34
75692;BME280;64307;52.508;6.090;2023-05-21T13:00:09;101660.28;;;25.61;50.57
75692;BME280;64307;52.508;6.090;2023-05-21T13:02:42;101670.63;;;25.31;49.75
75692;BME280;64307;52.508;6.090;2023-05-21T13:05:09;101661.59;;;25.42;49.97
75692;BME280;64307;52.508;6.090;2023-05-21T13:07:37;101671.13;;;25.20;51.29
75692;BME280;64307;52.508;6.090;2023-05-21T13:10:04;101658.81;;;25.05;51.09
75692;BME280;64307;52.508;6.090;2023-05-21T13:12:31;101665.72;;;25.32;50.00